createdAt,value
2022-08-22T00:01:31.698Z,38.67
2022-08-22T00:02:42.671Z,34.77
2022-08-22T00:02:48.774Z,35.35
2022-08-22T00:02:49.029Z,36.12
2022-08-22T00:02:56.595Z,37.08
2022-08-22T00:03:08.735Z,39.10
2022-08-22T00:04:33.447Z,38.67
2022-08-22T00:07:14.826Z,38.97
2022-08-22T00:10:11.599Z,38.80
2022-08-22T00:12:58.597Z,39.07
2022-08-22T00:15:44.262Z,39.13
2022-08-22T00:18:43.969Z,39.29
2022-08-22T00:21:33.001Z,39.15
2022-08-22T00:24:26.911Z,39.01
2022-08-22T00:27:23.795Z,39.06
2022-08-22T00:30:12.616Z,39.90
2022-08-22T00:33:16.447Z,39.98
2022-08-22T00:35:52.456Z,39.78
2022-08-22T00:38:36.796Z,39.44
2022-08-22T00:41:08.238Z,39.83
2022-08-22T00:44:01.207Z,39.65
2022-08-22T00:46:46.621Z,40.02
2022-08-22T00:49:38.157Z,39.73
2022-08-22T00:52:14.577Z,39.66
2022-08-22T00:55:02.095Z,40.39
2022-08-22T00:57:30.515Z,40.53
2022-08-22T01:00:19.281Z,40.71
2022-08-22T01:03:18.793Z,40.83
2022-08-22T01:05:55.161Z,40.82
2022-08-22T01:08:44.288Z,40.69
2022-08-22T01:11:37.440Z,40.99
2022-08-22T01:14:37.249Z,41.48
2022-08-22T01:17:33.735Z,41.96
2022-08-22T01:20:30.305Z,41.89
2022-08-22T01:23:35.323Z,42.97
2022-08-22T01:26:43.974Z,42.40
2022-08-22T01:29:30.945Z,43.71
2022-08-22T01:32:05.287Z,43.51
2022-08-22T01:34:58.940Z,43.32
2022-08-22T01:38:07.655Z,43.81
2022-08-22T01:41:00.697Z,43.34
2022-08-22T01:44:01.067Z,44.14
2022-08-22T01:46:37.653Z,44.51
2022-08-22T01:49:18.068Z,44.79
2022-08-22T01:51:57.149Z,44.48
2022-08-22T01:54:57.903Z,44.76
2022-08-22T01:57:26.644Z,44.81
2022-08-22T02:00:01.896Z,45.48
2022-08-22T02:03:05.917Z,45.38
2022-08-22T02:05:40.069Z,44.98
2022-08-22T02:08:27.721Z,44.51
2022-08-22T02:11:11.164Z,45.61
2022-08-22T02:13:59.276Z,46.61
2022-08-22T02:16:37.821Z,46.99
2022-08-22T02:19:14.432Z,45.94
2022-08-22T02:22:01.842Z,46.58
2022-08-22T02:24:37.997Z,45.84
2022-08-22T02:27:20.301Z,46.24
2022-08-22T02:30:05.276Z,46.05
2022-08-22T02:32:41.941Z,46.08
2022-08-22T02:35:31.496Z,46.15
2022-08-22T02:38:05.553Z,46.44
2022-08-22T02:40:45.949Z,46.68
2022-08-22T02:43:27.592Z,45.82
2022-08-22T02:46:23.270Z,46.55
2022-08-22T02:48:59.663Z,45.42
2022-08-22T02:51:48.745Z,45.49
2022-08-22T02:54:35.781Z,45.48
2022-08-22T02:57:27.226Z,45.54
2022-08-22T03:00:31.270Z,45.18
2022-08-22T03:03:14.869Z,45.21
2022-08-22T03:05:45.158Z,45.18
2022-08-22T03:08:27.172Z,45.00
2022-08-22T03:11:12.061Z,45.45
2022-08-22T03:14:01.628Z,45.88
2022-08-22T03:16:50.037Z,45.02
2022-08-22T03:19:43.184Z,45.73
2022-08-22T03:22:20.292Z,45.85
2022-08-22T03:25:30.532Z,46.06
2022-08-22T03:28:07.432Z,45.73
2022-08-22T03:30:46.192Z,45.37
2022-08-22T03:33:26.358Z,45.18
2022-08-22T03:36:22.664Z,45.26
2022-08-22T03:38:50.284Z,45.25
2022-08-22T03:41:36.250Z,45.24
2022-08-22T03:44:13.511Z,45.87
2022-08-22T03:47:08.976Z,45.19
2022-08-22T03:50:14.065Z,45.02
2022-08-22T03:53:15.308Z,45.23
2022-08-22T03:56:23.958Z,44.58
2022-08-22T03:59:12.769Z,44.73
2022-08-22T04:02:01.657Z,44.25
2022-08-22T04:04:48.912Z,43.86
2022-08-22T04:07:33.809Z,44.04
2022-08-22T04:10:20.025Z,43.90
2022-08-22T04:13:16.358Z,43.67
2022-08-22T04:15:46.985Z,43.57
2022-08-22T04:19:05.902Z,43.53
2022-08-22T04:22:00.377Z,42.86
2022-08-22T04:24:52.225Z,42.60
2022-08-22T04:27:30.295Z,42.06
2022-08-22T04:30:06.937Z,41.80
2022-08-22T04:32:44.594Z,40.84
2022-08-22T04:35:32.047Z,41.03
2022-08-22T04:38:05.037Z,40.47
2022-08-22T04:40:45.045Z,40.32
2022-08-22T04:43:23.584Z,39.96
2022-08-22T04:45:56.545Z,40.02
2022-08-22T04:48:51.026Z,40.03
2022-08-22T04:51:36.479Z,40.04
2022-08-22T04:54:28.586Z,39.94
2022-08-22T04:57:37.392Z,40.21
2022-08-22T05:00:08.887Z,39.60
2022-08-22T05:02:40.772Z,39.30
2022-08-22T05:05:17.918Z,39.10
2022-08-22T05:08:15.773Z,39.04
2022-08-22T05:10:47.710Z,37.96
2022-08-22T05:13:29.237Z,38.09
2022-08-22T05:16:04.410Z,37.60
2022-08-22T05:18:45.745Z,37.41
2022-08-22T05:21:15.993Z,36.76
2022-08-22T05:23:55.325Z,35.89
2022-08-22T05:26:23.079Z,35.51
2022-08-22T05:28:57.162Z,34.49
2022-08-22T05:31:30.627Z,33.20
2022-08-22T05:34:04.853Z,33.75
2022-08-22T05:36:48.388Z,34.48
2022-08-22T05:39:21.577Z,35.00
2022-08-22T05:41:55.181Z,35.59
2022-08-22T05:44:26.425Z,35.83
2022-08-22T05:47:05.359Z,35.54
2022-08-22T05:50:02.993Z,35.27
2022-08-22T05:52:52.612Z,34.30
2022-08-22T05:55:57.325Z,34.62
2022-08-22T05:59:08.568Z,34.84
2022-08-22T06:02:00.875Z,35.12
2022-08-22T06:04:55.062Z,34.61
2022-08-22T06:07:34.401Z,34.27
2022-08-22T06:10:08.693Z,34.58
2022-08-22T06:12:45.112Z,33.84
2022-08-22T06:15:21.576Z,33.69
2022-08-22T06:17:57.736Z,33.76
2022-08-22T06:20:39.867Z,33.65
2022-08-22T06:23:08.578Z,32.96
2022-08-22T06:25:39.126Z,32.70
2022-08-22T06:28:13.997Z,32.02
2022-08-22T06:30:45.989Z,31.28
2022-08-22T06:33:19.121Z,30.64
2022-08-22T06:36:11.795Z,31.36
2022-08-22T06:39:06.292Z,31.74
2022-08-22T06:41:40.330Z,32.40
2022-08-22T06:44:16.892Z,32.73
2022-08-22T06:46:47.168Z,33.18
2022-08-22T06:49:15.674Z,33.46
2022-08-22T06:51:45.618Z,33.65
2022-08-22T06:54:19.637Z,33.48
2022-08-22T06:56:50.464Z,33.31
2022-08-22T06:59:23.823Z,32.39
2022-08-22T07:01:59.628Z,30.86
2022-08-22T07:04:27.362Z,30.46
2022-08-22T07:06:57.559Z,28.40
2022-08-22T07:09:38.473Z,28.06
2022-08-22T07:12:19.567Z,27.50
2022-08-22T07:14:53.750Z,27.02
2022-08-22T07:17:30.661Z,26.97
2022-08-22T07:20:24.266Z,26.72
2022-08-22T07:22:58.891Z,25.54
2022-08-22T07:25:28.364Z,24.51
2022-08-22T07:28:19.874Z,24.75
2022-08-22T07:31:02.990Z,23.99
2022-08-22T07:33:48.388Z,24.46
2022-08-22T07:36:59.216Z,25.62
2022-08-22T07:39:42.212Z,26.23
2022-08-22T07:42:28.546Z,26.16
2022-08-22T07:45:55.830Z,26.68
2022-08-22T07:48:59.491Z,26.20
2022-08-22T07:51:41.919Z,25.42
2022-08-22T07:54:17.508Z,25.61
2022-08-22T07:56:57.750Z,25.69
2022-08-22T07:59:28.608Z,25.73
2022-08-22T08:01:59.204Z,26.21
2022-08-22T08:04:34.130Z,26.22
2022-08-22T08:07:08.493Z,25.85
2022-08-22T08:09:41.780Z,25.59
2022-08-22T08:12:12.433Z,25.19
2022-08-22T08:14:44.973Z,25.37
2022-08-22T08:17:23.255Z,25.78
2022-08-22T08:19:52.457Z,26.43
2022-08-22T08:22:27.186Z,27.02
2022-08-22T08:24:58.928Z,27.68
2022-08-22T08:27:52.755Z,28.69
2022-08-22T08:30:21.857Z,28.26
2022-08-22T08:32:57.598Z,28.41
2022-08-22T08:36:02.482Z,28.86
2022-08-22T08:38:58.159Z,29.53
2022-08-22T08:41:31.906Z,29.28
2022-08-22T08:44:23.948Z,28.99
2022-08-22T08:47:10.445Z,29.98
2022-08-22T08:50:04.090Z,29.69
2022-08-22T08:52:44.162Z,29.81
2022-08-22T08:55:36.171Z,30.00
2022-08-22T08:58:48.799Z,30.72
2022-08-22T09:01:39.698Z,30.59
2022-08-22T09:04:15.404Z,30.32
2022-08-22T09:07:02.969Z,30.52
2022-08-22T09:09:41.412Z,30.88
2022-08-22T09:12:30.407Z,30.85
2022-08-22T09:15:15.853Z,31.12
2022-08-22T09:18:14.646Z,31.33
2022-08-22T09:21:01.411Z,31.28
2022-08-22T09:23:42.029Z,31.08
2022-08-22T09:26:24.656Z,31.39
2022-08-22T09:28:59.568Z,31.79
2022-08-22T09:31:46.484Z,31.96
2022-08-22T09:34:34.580Z,32.01
2022-08-22T09:37:22.992Z,31.99
2022-08-22T09:40:17.094Z,31.99
2022-08-22T09:43:01.982Z,31.77
2022-08-22T09:45:41.381Z,31.87
2022-08-22T09:48:33.082Z,31.99
2022-08-22T09:51:33.373Z,31.72
2022-08-22T09:54:31.463Z,31.33
2022-08-22T09:57:08.995Z,31.33
2022-08-22T10:00:07.128Z,31.09
2022-08-22T10:02:44.961Z,31.01
2022-08-22T10:05:40.478Z,30.93
2022-08-22T10:08:45.766Z,31.02
2022-08-22T10:11:25.212Z,30.74
2022-08-22T10:14:51.112Z,30.93
2022-08-22T10:17:28.921Z,30.75
2022-08-22T10:20:50.597Z,31.35
2022-08-22T10:23:30.903Z,30.91
2022-08-22T10:26:22.812Z,30.78
2022-08-22T10:29:16.583Z,30.81
2022-08-22T10:31:58.665Z,30.77
2022-08-22T10:34:40.314Z,30.68
2022-08-22T10:37:46.677Z,31.13
2022-08-22T10:40:38.038Z,30.99
2022-08-22T10:43:29.171Z,30.96
2022-08-22T10:46:12.338Z,30.33
2022-08-22T10:48:51.270Z,30.47
2022-08-22T10:51:42.349Z,30.31
2022-08-22T10:54:27.773Z,30.38
2022-08-22T10:56:57.918Z,30.20
2022-08-22T10:59:31.266Z,30.20
2022-08-22T11:02:15.596Z,30.35
2022-08-22T11:05:09.059Z,30.15
2022-08-22T11:07:51.640Z,30.26
2022-08-22T11:11:00.166Z,30.30
2022-08-22T11:13:58.122Z,30.10
2022-08-22T11:16:55.091Z,30.01
2022-08-22T11:19:33.473Z,30.14
2022-08-22T11:22:19.426Z,30.37
2022-08-22T11:25:29.196Z,30.66
2022-08-22T11:28:30.878Z,30.15
2022-08-22T11:31:36.720Z,30.21
2022-08-22T11:34:14.872Z,29.64
2022-08-22T11:36:54.746Z,29.30
2022-08-22T11:39:34.207Z,29.59
2022-08-22T11:42:11.504Z,29.67
2022-08-22T11:44:50.815Z,29.32
2022-08-22T11:47:26.756Z,29.42
2022-08-22T11:49:58.606Z,28.44
2022-08-22T11:52:31.617Z,28.11
2022-08-22T11:55:03.315Z,28.06
2022-08-22T11:57:37.530Z,27.64
2022-08-22T12:00:20.958Z,27.66
2022-08-22T12:03:14.903Z,28.09
2022-08-22T12:06:03.832Z,28.39
2022-08-22T12:08:34.290Z,27.84
2022-08-22T12:11:14.398Z,27.79
2022-08-22T12:14:03.951Z,27.64
2022-08-22T12:16:51.998Z,27.95
2022-08-22T12:20:14.969Z,28.39
2022-08-22T12:23:01.349Z,28.51
2022-08-22T12:25:38.228Z,28.62
2022-08-22T12:28:26.311Z,29.41
2022-08-22T12:31:42.898Z,29.55
2022-08-22T12:34:37.221Z,29.63
2022-08-22T12:37:16.633Z,29.87
2022-08-22T12:40:03.492Z,29.82
2022-08-22T12:43:01.889Z,30.21
2022-08-22T12:45:40.616Z,30.43
2022-08-22T12:48:45.593Z,30.41
2022-08-22T12:51:31.483Z,30.38
2022-08-22T12:54:25.436Z,30.80
2022-08-22T12:57:26.792Z,30.77
2022-08-22T13:00:26.928Z,31.10
2022-08-22T13:02:55.996Z,31.01
2022-08-22T13:05:29.596Z,31.29
2022-08-22T13:08:26.482Z,31.09
2022-08-22T13:11:02.376Z,31.44
2022-08-22T13:13:36.906Z,31.33
2022-08-22T13:16:09.382Z,31.31
2022-08-22T13:18:53.663Z,31.21
2022-08-22T13:21:36.003Z,31.54
2022-08-22T13:24:12.762Z,31.52
2022-08-22T13:26:52.240Z,31.32
2022-08-22T13:29:27.424Z,31.31
2022-08-22T13:32:07.793Z,31.20
2022-08-22T13:34:43.650Z,31.26
2022-08-22T13:37:16.944Z,31.61
2022-08-22T13:39:49.922Z,31.55
2022-08-22T13:42:29.961Z,31.68
2022-08-22T13:45:04.349Z,31.33
2022-08-22T13:47:39.834Z,31.53
2022-08-22T13:50:12.746Z,31.60
2022-08-22T13:52:52.276Z,31.72
2022-08-22T13:55:31.433Z,31.68
2022-08-22T13:58:07.730Z,31.54
2022-08-22T14:00:57.614Z,31.63
2022-08-22T14:03:48.496Z,31.87
2022-08-22T14:06:43.930Z,32.01
2022-08-22T14:09:32.027Z,32.01
2022-08-22T14:12:05.710Z,32.07
2022-08-22T14:14:38.364Z,32.18
2022-08-22T14:17:07.634Z,32.21
2022-08-22T14:19:58.897Z,31.81
2022-08-22T14:22:35.080Z,31.99
2022-08-22T14:25:17.128Z,32.00
2022-08-22T14:28:06.474Z,32.10
2022-08-22T14:31:02.477Z,32.24
2022-08-22T14:34:12.280Z,32.16
2022-08-22T14:36:39.701Z,32.29
2022-08-22T14:39:10.317Z,32.60
2022-08-22T14:42:04.142Z,32.51
2022-08-22T14:44:40.577Z,32.19
2022-08-22T14:47:54.741Z,32.26
2022-08-22T14:50:11.426Z,32.45
2022-08-22T14:52:45.624Z,32.30
2022-08-22T14:55:20.401Z,32.29
2022-08-22T14:57:56.453Z,32.46
2022-08-22T15:00:31.579Z,32.74
2022-08-22T15:03:14.428Z,32.76
2022-08-22T15:05:49.281Z,32.55
2022-08-22T15:08:46.308Z,32.66
2022-08-22T15:11:22.413Z,32.90
2022-08-22T15:13:52.652Z,32.46
2022-08-22T15:16:29.762Z,32.94
2022-08-22T15:19:00.010Z,32.95
2022-08-22T15:21:33.519Z,33.24
2022-08-22T15:24:14.245Z,32.74
2022-08-22T15:26:52.339Z,33.00
2022-08-22T15:29:26.721Z,32.85
2022-08-22T15:32:01.573Z,32.29
2022-08-22T15:34:38.459Z,32.30
2022-08-22T15:37:28.831Z,32.63
2022-08-22T15:40:14.646Z,32.72
2022-08-22T15:42:46.836Z,32.48
2022-08-22T15:45:36.416Z,32.61
2022-08-22T15:48:25.850Z,32.58
2022-08-22T15:51:09.381Z,32.79
2022-08-22T15:53:46.172Z,32.57
2022-08-22T15:56:15.354Z,32.80
2022-08-22T15:58:48.656Z,32.77
2022-08-22T16:01:22.192Z,32.88
2022-08-22T16:04:05.327Z,32.89
2022-08-22T16:07:02.317Z,32.80
2022-08-22T16:09:38.575Z,33.20
2022-08-22T16:12:11.938Z,33.12
2022-08-22T16:14:42.094Z,33.12
2022-08-22T16:17:30.947Z,34.08
2022-08-22T16:20:19.267Z,33.33
2022-08-22T16:22:59.269Z,33.03
2022-08-22T16:25:45.017Z,33.14
2022-08-22T16:28:56.736Z,33.34
2022-08-22T16:31:31.926Z,33.13
2022-08-22T16:34:17.524Z,33.22
2022-08-22T16:37:09.049Z,33.27
2022-08-22T16:39:58.844Z,33.62
2022-08-22T16:42:35.477Z,33.57
2022-08-22T16:45:27.197Z,33.64
2022-08-22T16:47:58.204Z,33.63
2022-08-22T16:50:36.007Z,33.99
2022-08-22T16:53:08.930Z,33.80
2022-08-22T16:56:08.688Z,34.40
2022-08-22T16:59:00.832Z,33.89
2022-08-22T17:01:45.808Z,34.47
2022-08-22T17:04:45.335Z,34.37
2022-08-22T17:07:23.955Z,34.55
2022-08-22T17:10:12.381Z,34.81
2022-08-22T17:13:03.173Z,34.86
2022-08-22T17:16:03.108Z,34.83
2022-08-22T17:19:09.660Z,35.09
2022-08-22T17:21:51.878Z,34.87
2022-08-22T17:25:02.823Z,35.18
2022-08-22T17:27:47.437Z,35.25
2022-08-22T17:30:34.646Z,35.54
2022-08-22T17:33:30.561Z,35.47
2022-08-22T17:36:04.093Z,35.71
2022-08-22T17:38:55.710Z,35.85
2022-08-22T17:41:43.261Z,35.87
2022-08-22T17:44:13.463Z,36.07
2022-08-22T17:47:06.520Z,36.43
2022-08-22T17:49:33.829Z,36.08
2022-08-22T17:52:34.221Z,36.39
2022-08-22T17:55:22.689Z,36.40
2022-08-22T17:58:48.577Z,36.63
2022-08-22T18:02:16.163Z,36.63
2022-08-22T18:05:08.927Z,36.69
2022-08-22T18:08:37.212Z,36.72
2022-08-22T18:11:09.741Z,37.16
2022-08-22T18:14:20.750Z,36.98
2022-08-22T18:16:57.638Z,37.10
2022-08-22T18:19:41.890Z,37.10
2022-08-22T18:25:26.070Z,37.14
2022-08-22T18:28:09.406Z,37.26
2022-08-22T18:30:53.016Z,37.98
2022-08-22T18:33:27.767Z,37.98
2022-08-22T18:36:22.430Z,37.59
2022-08-22T18:39:03.767Z,37.68
2022-08-22T18:41:47.609Z,37.83
2022-08-22T18:44:24.131Z,37.75
2022-08-22T18:46:54.812Z,37.68
2022-08-22T18:49:25.385Z,38.47
2022-08-22T18:52:14.252Z,38.49
2022-08-22T19:00:48.489Z,38.27
2022-08-22T19:07:53.731Z,38.75
2022-08-22T19:14:29.946Z,39.07
2022-08-22T19:17:55.586Z,39.39
2022-08-22T19:21:49.416Z,39.20
2022-08-22T19:28:38.208Z,39.16
2022-08-22T19:31:22.903Z,39.10
2022-08-22T19:34:29.890Z,39.28
2022-08-22T19:37:30.820Z,39.20
2022-08-22T19:40:06.317Z,39.19
2022-08-22T19:42:36.815Z,39.48
2022-08-22T19:45:29.187Z,39.49
2022-08-22T19:48:13.173Z,39.63
2022-08-22T19:50:43.283Z,39.92
2022-08-22T19:53:22.717Z,40.27
2022-08-22T20:00:10.661Z,40.40
2022-08-22T20:00:44.028Z,39.81
2022-08-22T20:10:30.475Z,41.06
2022-08-22T20:13:10.138Z,41.36
2022-08-22T20:16:21.987Z,41.25
2022-08-22T20:19:20.777Z,40.76
2022-08-22T20:22:25.842Z,41.12
2022-08-22T20:25:41.635Z,41.26
2022-08-22T20:28:38.174Z,41.88
2022-08-22T20:31:11.343Z,42.06
2022-08-22T20:33:43.021Z,42.50
2022-08-22T20:36:28.301Z,42.87
2022-08-22T20:39:03.243Z,42.21
2022-08-22T20:41:43.258Z,42.49
2022-08-22T20:44:17.142Z,42.66
2022-08-22T20:46:55.250Z,42.09
2022-08-22T20:49:34.910Z,42.70
2022-08-22T20:52:06.672Z,42.70
2022-08-22T20:54:40.401Z,43.09
2022-08-22T20:57:19.972Z,42.57
2022-08-22T20:59:53.991Z,42.39
2022-08-22T21:02:34.610Z,42.59
2022-08-22T21:05:05.040Z,43.19
2022-08-22T21:07:36.956Z,42.96
2022-08-22T21:10:25.802Z,43.04
2022-08-22T21:13:13.445Z,43.41
2022-08-22T21:15:45.286Z,43.46
2022-08-22T21:18:29.102Z,43.34
2022-08-22T21:21:18.437Z,44.05
2022-08-22T21:23:51.760Z,43.78
2022-08-22T21:26:28.578Z,43.60
2022-08-22T21:28:56.183Z,43.39
2022-08-22T21:31:27.795Z,43.61
2022-08-22T21:33:56.970Z,44.00
2022-08-22T21:36:30.596Z,44.31
2022-08-22T21:39:00.670Z,44.63
2022-08-22T21:41:52.000Z,44.08
2022-08-22T21:44:33.059Z,44.74
2022-08-22T21:47:30.436Z,44.72
2022-08-22T21:50:25.871Z,44.37
2022-08-22T21:52:55.942Z,45.11
2022-08-22T21:55:27.051Z,45.12
2022-08-22T21:58:06.685Z,45.03
2022-08-22T22:00:53.742Z,44.96
2022-08-22T22:03:24.406Z,44.67
2022-08-22T22:05:54.960Z,45.36
2022-08-22T22:08:22.448Z,45.57
2022-08-22T22:10:50.973Z,45.93
2022-08-22T22:13:21.151Z,45.93
2022-08-22T22:15:52.665Z,46.25
2022-08-22T22:18:24.633Z,46.30
2022-08-22T22:20:54.391Z,46.13
2022-08-22T22:23:22.288Z,46.18
2022-08-22T22:25:51.504Z,45.87
2022-08-22T22:28:30.164Z,46.36
2022-08-22T22:30:57.881Z,45.98
2022-08-22T22:33:31.465Z,46.29
2022-08-22T22:36:06.671Z,46.43
2022-08-22T22:38:34.485Z,46.42
2022-08-22T22:41:01.992Z,46.72
2022-08-22T22:43:29.719Z,46.60
2022-08-22T22:45:59.660Z,46.71
2022-08-22T22:48:27.001Z,46.16
2022-08-22T22:50:54.995Z,46.23
2022-08-22T22:53:38.140Z,46.86
2022-08-22T22:56:09.573Z,46.86
2022-08-22T22:58:38.106Z,46.66
2022-08-22T23:01:24.347Z,47.13
2022-08-22T23:03:56.930Z,47.33
2022-08-22T23:06:27.129Z,47.19
2022-08-22T23:08:54.952Z,47.40
2022-08-22T23:11:28.606Z,47.09
2022-08-22T23:13:56.470Z,47.13
2022-08-22T23:16:28.029Z,47.30
2022-08-22T23:18:56.244Z,47.53
2022-08-22T23:21:27.851Z,47.64
2022-08-22T23:24:00.269Z,48.00
2022-08-22T23:26:28.825Z,47.82
2022-08-22T23:28:56.880Z,47.94
2022-08-22T23:31:42.949Z,48.00
2022-08-22T23:34:16.152Z,47.89
2022-08-22T23:36:47.177Z,48.56
2022-08-22T23:39:15.865Z,48.44
2022-08-22T23:41:46.588Z,48.66
2022-08-22T23:44:16.243Z,48.92
2022-08-22T23:46:43.670Z,49.23
2022-08-22T23:49:11.495Z,49.24
2022-08-22T23:51:39.917Z,49.27
2022-08-22T23:54:07.569Z,49.21
2022-08-22T23:56:38.583Z,49.41
2022-08-22T23:59:09.413Z,49.57
